Time;durP1;ratioP1;P1;durP2;ratioP2;P2;SDS_P1;SDS_P2;PMS_P1;PMS_P2;Temp;Humidity;BMP_temperature;BMP_pressure;BME280_temperature;BME280_humidity;BME280_pressure;Samples;Min_cycle;Max_cycle;Signal;HPM_P1;HPM_P2
2023/03/31 00:01:51;;;;;;;15.55;2.65;;;11.40;99.90;;;;;;4959558;28;37806;-74
2023/03/31 00:04:22;;;;;;;11.48;3.20;;;11.40;99.90;;;;;;4930607;28;37789;-74
2023/03/31 00:06:49;;;;;;;10.57;2.53;;;11.50;99.90;;;;;;4948661;28;37917;-75
2023/03/31 00:09:20;;;;;;;12.15;2.78;;;11.60;99.90;;;;;;4928854;28;36231;-74
2023/03/31 00:11:51;;;;;;;11.95;2.42;;;11.60;99.90;;;;;;4924166;28;38923;-75
2023/03/31 00:14:19;;;;;;;10.10;2.10;;;11.60;99.90;;;;;;4937815;28;38035;-75
2023/03/31 00:16:46;;;;;;;11.45;2.45;;;11.50;99.90;;;;;;4938537;28;38649;-75
2023/03/31 00:19:19;;;;;;;14.98;2.72;;;11.50;99.90;;;;;;4942679;28;38175;-75
2023/03/31 00:21:47;;;;;;;12.68;2.95;;;11.50;99.90;;;;;;4929596;28;37858;-74
2023/03/31 00:24:15;;;;;;;22.13;5.63;;;11.50;99.90;;;;;;4930981;28;38507;-75
2023/03/31 00:26:41;;;;;;;11.45;2.92;;;11.50;99.90;;;;;;4933579;28;37496;-76
2023/03/31 00:29:09;;;;;;;11.20;2.90;;;11.60;99.90;;;;;;4959388;28;39057;-74
2023/03/31 00:31:35;;;;;;;15.15;3.45;;;11.70;99.90;;;;;;4928586;28;36183;-75
2023/03/31 00:34:01;;;;;;;14.68;2.97;;;11.70;99.90;;;;;;4934778;28;37640;-75
2023/03/31 00:36:27;;;;;;;17.13;3.13;;;11.70;99.90;;;;;;4946132;28;48992;-75
2023/03/31 00:39:08;;;;;;;18.02;3.03;;;11.80;99.90;;;;;;4929118;28;37243;-74
2023/03/31 00:41:36;;;;;;;11.73;2.78;;;11.80;99.90;;;;;;4932658;28;47446;-75
2023/03/31 00:44:17;;;;;;;17.45;3.70;;;11.90;99.90;;;;;;4955739;28;39542;-75
2023/03/31 00:46:43;;;;;;;11.77;2.97;;;11.90;99.90;;;;;;4944995;28;39546;-75
2023/03/31 00:49:19;;;;;;;16.50;2.88;;;11.90;99.90;;;;;;4947620;28;38904;-74
2023/03/31 00:51:50;;;;;;;18.13;2.63;;;12.00;99.90;;;;;;4931847;28;36533;-75
2023/03/31 00:54:18;;;;;;;15.15;2.63;;;12.00;99.90;;;;;;4932209;28;38070;-75
2023/03/31 00:56:47;;;;;;;15.43;3.17;;;12.00;99.90;;;;;;4923482;28;37364;-75
2023/03/31 00:59:14;;;;;;;18.27;2.80;;;12.00;99.90;;;;;;4928505;28;36900;-75
2023/03/31 01:01:46;;;;;;;12.05;2.47;;;11.90;99.90;;;;;;5334172;23;37301;-77
2023/03/31 01:04:15;;;;;;;15.18;3.55;;;11.80;99.90;;;;;;4915880;28;38821;-77
2023/03/31 01:07:15;;;;;;;21.80;3.50;;;11.70;99.90;;;;;;4938710;28;39046;-76
2023/03/31 01:09:46;;;;;;;22.77;3.20;;;11.60;99.90;;;;;;4947531;28;48172;-77
2023/03/31 01:12:14;;;;;;;17.20;3.58;;;11.50;99.90;;;;;;4927260;28;37375;-77
2023/03/31 01:14:40;;;;;;;17.52;3.38;;;11.50;99.90;;;;;;4942288;28;38691;-76
2023/03/31 01:17:08;;;;;;;16.67;3.10;;;11.40;99.90;;;;;;4926326;28;37911;-76
2023/03/31 01:20:12;;;;;;;16.95;3.75;;;11.40;99.90;;;;;;4927848;28;36953;-77
2023/03/31 01:23:16;;;;;;;22.40;4.10;;;11.30;99.90;;;;;;4946740;28;48723;-77
2023/03/31 01:26:07;;;;;;;17.35;3.50;;;11.30;99.90;;;;;;4931949;28;46998;-77
2023/03/31 01:28:35;;;;;;;20.70;4.22;;;11.20;99.90;;;;;;4932957;28;48454;-76
2023/03/31 01:31:40;;;;;;;19.70;3.70;;;11.20;99.90;;;;;;4953008;28;39131;-75
2023/03/31 01:34:15;;;;;;;23.23;3.85;;;11.20;99.90;;;;;;4912651;28;37876;-76
2023/03/31 01:36:45;;;;;;;20.33;3.83;;;11.10;99.90;;;;;;4939089;28;38658;-76
2023/03/31 01:39:39;;;;;;;27.65;4.75;;;11.10;99.90;;;;;;4937725;28;38637;-76
2023/03/31 01:42:11;;;;;;;18.05;3.58;;;11.10;99.90;;;;;;4942703;28;38454;-76
2023/03/31 01:44:52;;;;;;;21.70;5.22;;;11.10;99.90;;;;;;4941805;28;36415;-76
2023/03/31 01:47:29;;;;;;;24.75;4.03;;;11.10;99.90;;;;;;4948004;28;39063;-76
2023/03/31 01:50:03;;;;;;;29.75;5.18;;;11.10;99.90;;;;;;4938267;28;37804;-77
2023/03/31 01:52:54;;;;;;;17.67;3.83;;;11.10;99.90;;;;;;4959352;28;47194;-77
2023/03/31 01:55:26;;;;;;;25.13;4.95;;;11.10;99.90;;;;;;4927962;28;36406;-78
2023/03/31 01:58:04;;;;;;;26.38;5.57;;;11.00;99.90;;;;;;4947265;28;38387;-78
2023/03/31 02:00:36;;;;;;;17.05;3.42;;;11.00;99.90;;;;;;4959006;28;48554;-77
2023/03/31 02:03:13;;;;;;;17.75;3.78;;;11.00;99.90;;;;;;4930250;28;37012;-77
2023/03/31 02:05:53;;;;;;;18.17;4.15;;;11.00;99.90;;;;;;4933354;28;36027;-77
2023/03/31 02:08:30;;;;;;;18.30;4.20;;;11.00;99.90;;;;;;4930283;28;38408;-78
2023/03/31 02:10:58;;;;;;;21.33;4.53;;;11.00;99.90;;;;;;4967215;28;38184;-77
2023/03/31 02:13:26;;;;;;;21.90;5.03;;;11.00;99.90;;;;;;4939760;28;37664;-77
2023/03/31 02:15:58;;;;;;;23.67;4.60;;;11.00;99.90;;;;;;4948202;28;37087;-78
2023/03/31 02:18:29;;;;;;;28.23;6.82;;;10.90;99.90;;;;;;4944429;28;39851;-78
2023/03/31 02:20:57;;;;;;;19.67;5.10;;;10.90;99.90;;;;;;4931622;28;37261;-77
2023/03/31 02:23:28;;;;;;;22.95;5.68;;;11.00;99.90;;;;;;4941823;28;37113;-78
2023/03/31 02:26:10;;;;;;;24.52;4.97;;;10.90;99.90;;;;;;4951561;28;38208;-77
2023/03/31 02:28:37;;;;;;;21.20;4.43;;;10.90;99.90;;;;;;4941648;28;48293;-78
2023/03/31 02:31:19;;;;;;;16.27;3.70;;;10.90;99.90;;;;;;4944815;28;38079;-77
2023/03/31 02:33:46;;;;;;;20.23;4.03;;;10.80;99.90;;;;;;4943602;28;37849;-77
2023/03/31 02:36:13;;;;;;;16.00;3.85;;;10.80;99.90;;;;;;4932890;28;38706;-78
2023/03/31 02:38:52;;;;;;;22.60;3.47;;;10.80;99.90;;;;;;4931280;28;37999;-77
2023/03/31 02:41:18;;;;;;;15.18;3.00;;;10.80;99.90;;;;;;4925468;28;38517;-77
2023/03/31 02:43:44;;;;;;;15.27;2.75;;;10.80;99.90;;;;;;4937918;28;39067;-78
2023/03/31 02:46:10;;;;;;;18.83;2.90;;;10.70;99.90;;;;;;4946544;28;37632;-77
2023/03/31 02:48:40;;;;;;;15.18;2.90;;;10.70;99.90;;;;;;4952578;28;39095;-77
2023/03/31 02:51:07;;;;;;;17.80;2.88;;;10.60;99.90;;;;;;4940292;28;38492;-78
2023/03/31 02:53:45;;;;;;;17.23;3.13;;;10.60;99.90;;;;;;4951489;28;37610;-79
2023/03/31 02:56:39;;;;;;;13.90;2.55;;;10.60;99.90;;;;;;4924534;28;36358;-78
2023/03/31 02:59:30;;;;;;;10.38;1.70;;;10.50;99.90;;;;;;4924532;28;39379;-78
2023/03/31 03:02:09;;;;;;;15.13;2.65;;;10.50;99.90;;;;;;4953002;28;39620;-77
2023/03/31 03:04:53;;;;;;;12.43;2.13;;;10.40;99.90;;;;;;4950179;28;49763;-78
2023/03/31 03:07:30;;;;;;;14.57;2.10;;;10.40;99.90;;;;;;4931018;28;37558;-77
2023/03/31 03:10:15;;;;;;;15.00;2.60;;;10.40;99.90;;;;;;4930345;28;37916;-78
2023/03/31 03:12:58;;;;;;;16.55;1.92;;;10.40;99.90;;;;;;4932295;28;47456;-77
2023/03/31 03:15:31;;;;;;;10.77;2.73;;;10.40;99.90;;;;;;4926969;28;37391;-77
2023/03/31 03:17:58;;;;;;;15.63;2.70;;;10.40;99.90;;;;;;4934131;28;36777;-77
2023/03/31 03:20:24;;;;;;;14.63;2.73;;;10.40;99.90;;;;;;4932092;28;38172;-77
2023/03/31 03:22:50;;;;;;;15.13;2.65;;;10.40;99.90;;;;;;4949720;28;38585;-77
2023/03/31 03:25:19;;;;;;;17.73;3.20;;;10.40;99.90;;;;;;4936323;28;37059;-77
2023/03/31 03:27:46;;;;;;;19.77;3.50;;;10.30;99.90;;;;;;4939539;28;36977;-77
2023/03/31 03:30:13;;;;;;;15.77;4.38;;;10.40;99.90;;;;;;4934632;28;38778;-77
2023/03/31 03:32:40;;;;;;;19.77;4.60;;;10.40;99.90;;;;;;4950145;28;38656;-77
2023/03/31 03:35:06;;;;;;;20.23;4.30;;;10.40;99.90;;;;;;4934284;28;37043;-77
2023/03/31 03:37:33;;;;;;;17.93;5.20;;;10.50;99.90;;;;;;4940155;28;37461;-76
2023/03/31 03:39:59;;;;;;;18.93;6.00;;;10.50;99.90;;;;;;4936516;28;38073;-77
2023/03/31 03:42:25;;;;;;;24.30;6.40;;;10.50;99.90;;;;;;4954505;28;38595;-77
2023/03/31 03:44:51;;;;;;;17.17;4.93;;;10.50;99.90;;;;;;4938565;28;37845;-76
2023/03/31 03:47:17;;;;;;;20.37;5.20;;;10.50;99.90;;;;;;4946886;28;37398;-77
2023/03/31 03:49:43;;;;;;;20.60;5.57;;;10.50;99.90;;;;;;4926722;28;37382;-77
2023/03/31 03:52:10;;;;;;;17.83;5.73;;;10.50;99.90;;;;;;4951910;28;38315;-77
2023/03/31 03:54:36;;;;;;;17.30;4.80;;;10.60;99.90;;;;;;4959323;28;38252;-76
2023/03/31 03:57:02;;;;;;;27.70;5.17;;;10.60;99.90;;;;;;4939643;28;36144;-77
2023/03/31 03:59:28;;;;;;;22.63;4.90;;;10.60;99.90;;;;;;4938675;28;37790;-77
2023/03/31 04:01:54;;;;;;;18.48;4.68;;;10.60;99.90;;;;;;4943047;28;37324;-77
2023/03/31 04:04:20;;;;;;;20.53;4.97;;;10.60;99.90;;;;;;4937159;28;37620;-78
2023/03/31 04:06:46;;;;;;;20.20;4.78;;;10.60;99.90;;;;;;4936411;28;36525;-77
2023/03/31 04:09:12;;;;;;;18.33;4.83;;;10.60;99.90;;;;;;4932493;28;37518;-77
2023/03/31 04:11:38;;;;;;;16.37;4.33;;;10.60;99.90;;;;;;4941573;28;37138;-77
2023/03/31 04:14:04;;;;;;;16.85;4.90;;;10.60;99.90;;;;;;4932301;28;38866;-77
2023/03/31 04:16:33;;;;;;;15.73;4.78;;;10.60;99.90;;;;;;4956546;28;37341;-77
2023/03/31 04:19:02;;;;;;;17.35;4.30;;;10.60;99.90;;;;;;4952225;28;39871;-77
2023/03/31 04:21:33;;;;;;;20.00;3.77;;;10.60;99.90;;;;;;4945690;28;48799;-77
2023/03/31 04:24:03;;;;;;;16.80;4.53;;;10.60;99.90;;;;;;4933688;28;37791;-77
2023/03/31 04:26:41;;;;;;;13.82;3.58;;;10.60;99.90;;;;;;4919863;28;47349;-77
2023/03/31 04:29:09;;;;;;;11.93;3.33;;;10.70;99.90;;;;;;4932896;28;37658;-77
2023/03/31 04:31:37;;;;;;;12.70;3.25;;;10.70;99.90;;;;;;4930831;28;38236;-77
2023/03/31 04:34:05;;;;;;;13.07;3.78;;;10.70;99.90;;;;;;4942607;28;38007;-77
2023/03/31 04:36:32;;;;;;;10.88;3.08;;;10.70;99.90;;;;;;4934870;28;36017;-77
2023/03/31 04:38:59;;;;;;;12.87;3.87;;;10.70;99.90;;;;;;4936366;28;37687;-77
2023/03/31 04:41:26;;;;;;;13.15;3.03;;;10.60;99.90;;;;;;4941697;28;37132;-77
2023/03/31 04:43:53;;;;;;;14.80;3.10;;;10.60;99.90;;;;;;4931772;28;36918;-76
2023/03/31 04:46:19;;;;;;;10.98;3.35;;;10.70;99.90;;;;;;4921614;28;36186;-77
2023/03/31 04:48:45;;;;;;;12.93;2.80;;;10.60;99.90;;;;;;4927627;28;37676;-77
2023/03/31 04:51:14;;;;;;;10.32;2.78;;;10.60;99.90;;;;;;4944393;28;39351;-77
2023/03/31 04:53:40;;;;;;;8.60;2.70;;;10.60;99.90;;;;;;4949587;28;37651;-77
2023/03/31 04:56:06;;;;;;;9.27;2.70;;;10.60;99.90;;;;;;4960377;28;37925;-76
2023/03/31 04:58:33;;;;;;;6.93;2.27;;;10.60;99.90;;;;;;4933371;28;37964;-77
2023/03/31 05:00:59;;;;;;;6.73;2.30;;;10.60;99.90;;;;;;4955032;28;38562;-77
2023/03/31 05:03:25;;;;;;;8.03;2.63;;;10.60;99.90;;;;;;4936411;28;37193;-77
2023/03/31 05:05:51;;;;;;;7.93;2.27;;;10.60;99.90;;;;;;4947356;28;37119;-76
2023/03/31 05:08:17;;;;;;;8.97;2.10;;;10.60;99.90;;;;;;4939803;28;38341;-77
2023/03/31 05:10:43;;;;;;;7.83;1.57;;;10.60;99.90;;;;;;4926831;28;38357;-78
2023/03/31 05:13:10;;;;;;;6.63;1.63;;;10.60;99.90;;;;;;4945347;28;39159;-76
2023/03/31 05:15:39;;;;;;;8.80;1.97;;;10.60;99.90;;;;;;4938698;28;37881;-75
2023/03/31 05:18:06;;;;;;;5.07;1.30;;;10.60;99.90;;;;;;4933002;28;37595;-77
2023/03/31 05:20:33;;;;;;;9.17;1.50;;;10.60;99.90;;;;;;4952905;28;38856;-77
2023/03/31 05:22:59;;;;;;;3.93;1.53;;;10.60;99.90;;;;;;4939109;28;38128;-78
2023/03/31 05:25:28;;;;;;;6.15;1.40;;;10.60;99.90;;;;;;4927332;28;36157;-79
2023/03/31 05:27:55;;;;;;;4.67;1.13;;;10.60;99.90;;;;;;4944613;28;39280;-78
2023/03/31 05:30:21;;;;;;;4.90;1.10;;;10.60;99.90;;;;;;4929531;28;37751;-78
2023/03/31 05:32:47;;;;;;;8.40;1.47;;;10.60;99.90;;;;;;4942858;28;37939;-77
2023/03/31 05:35:13;;;;;;;3.77;1.20;;;10.50;99.90;;;;;;4943095;28;36544;-77
2023/03/31 05:37:39;;;;;;;4.77;1.20;;;10.50;99.90;;;;;;4926872;28;38613;-77
2023/03/31 05:40:08;;;;;;;4.73;1.10;;;10.50;99.90;;;;;;4939809;28;37729;-76
2023/03/31 05:42:34;;;;;;;5.97;1.30;;;10.40;99.90;;;;;;4944357;28;37098;-79
2023/03/31 05:45:01;;;;;;;4.90;1.03;;;10.40;99.90;;;;;;4934707;28;36134;-78
2023/03/31 05:47:27;;;;;;;3.97;1.00;;;10.40;99.90;;;;;;4926612;28;40750;-77
2023/03/31 05:49:53;;;;;;;7.53;1.07;;;10.40;99.90;;;;;;4933145;28;38475;-77
2023/03/31 05:52:19;;;;;;;10.10;1.50;;;10.30;99.90;;;;;;4933305;28;36998;-77
2023/03/31 05:54:45;;;;;;;5.30;1.47;;;10.30;99.90;;;;;;4952404;28;36776;-77
2023/03/31 05:57:11;;;;;;;6.10;1.27;;;10.20;99.90;;;;;;4928855;28;38637;-77
2023/03/31 05:59:39;;;;;;;5.50;1.17;;;10.20;99.90;;;;;;4941870;28;37684;-76
2023/03/31 06:02:06;;;;;;;5.53;1.30;;;10.20;99.90;;;;;;4945397;28;39245;-77
2023/03/31 06:04:32;;;;;;;4.07;1.23;;;10.20;99.90;;;;;;4938011;28;35904;-78
2023/03/31 06:06:58;;;;;;;2.73;0.97;;;10.20;99.90;;;;;;4930157;28;37772;-77
2023/03/31 06:09:25;;;;;;;5.27;1.00;;;10.20;99.90;;;;;;4936081;28;37235;-75
2023/03/31 06:11:51;;;;;;;8.93;1.57;;;10.20;99.90;;;;;;4926449;28;38512;-77
2023/03/31 06:14:17;;;;;;;5.00;1.07;;;10.20;99.90;;;;;;4939759;28;37565;-77
2023/03/31 06:16:46;;;;;;;9.90;2.40;;;10.20;99.90;;;;;;4947780;28;38342;-77
2023/03/31 06:19:12;;;;;;;5.13;1.50;;;10.20;99.90;;;;;;4933000;28;38574;-77
2023/03/31 06:21:38;;;;;;;6.73;1.37;;;10.30;99.90;;;;;;4933139;28;38356;-77
2023/03/31 06:24:05;;;;;;;5.83;1.10;;;10.30;99.90;;;;;;4926308;28;37625;-77
2023/03/31 06:26:31;;;;;;;5.63;1.60;;;10.30;99.90;;;;;;4927952;28;39722;-78
2023/03/31 06:28:57;;;;;;;6.83;1.47;;;10.30;99.90;;;;;;4926722;28;38744;-77
2023/03/31 06:31:24;;;;;;;5.07;1.60;;;10.30;99.90;;;;;;4917451;28;38386;-77
2023/03/31 06:33:51;;;;;;;7.10;1.50;;;10.30;99.90;;;;;;4929873;28;37410;-76
2023/03/31 06:36:19;;;;;;;9.57;1.63;;;10.30;99.90;;;;;;4927231;28;37689;-77
2023/03/31 06:38:46;;;;;;;5.73;1.70;;;10.40;99.90;;;;;;4933650;28;37715;-75
2023/03/31 06:41:14;;;;;;;8.73;2.20;;;10.40;99.90;;;;;;4929465;28;37959;-79
2023/03/31 06:43:41;;;;;;;10.67;2.60;;;10.40;99.90;;;;;;4941837;28;36599;-77
2023/03/31 06:46:07;;;;;;;9.23;2.53;;;10.40;99.90;;;;;;4948167;28;39977;-77
2023/03/31 06:48:34;;;;;;;9.47;2.87;;;10.50;99.90;;;;;;4929689;28;37588;-78
2023/03/31 06:51:02;;;;;;;8.97;3.10;;;10.50;99.90;;;;;;4937164;28;38099;-78
2023/03/31 06:53:28;;;;;;;11.75;2.80;;;10.60;99.90;;;;;;4921724;28;47354;-78
2023/03/31 06:55:55;;;;;;;10.48;3.30;;;10.60;99.90;;;;;;4922669;28;37896;-77
2023/03/31 06:58:21;;;;;;;9.27;3.33;;;10.60;99.90;;;;;;4936355;28;38631;-78
2023/03/31 07:00:47;;;;;;;9.40;2.90;;;10.70;99.90;;;;;;4923019;28;37106;-77
2023/03/31 07:03:17;;;;;;;10.90;2.95;;;10.70;99.90;;;;;;4941104;28;37740;-77
2023/03/31 07:05:51;;;;;;;12.32;3.08;;;10.70;99.90;;;;;;4926161;28;37100;-77
2023/03/31 07:08:20;;;;;;;12.88;3.10;;;10.70;99.90;;;;;;4932139;28;20055;-79
2023/03/31 07:10:48;;;;;;;12.82;3.92;;;10.80;99.90;;;;;;4949836;28;37749;-81
2023/03/31 07:13:15;;;;;;;15.55;4.45;;;10.80;99.90;;;;;;4946946;28;39296;-79
2023/03/31 07:15:42;;;;;;;15.95;4.20;;;10.90;99.90;;;;;;4932796;28;37108;-79
2023/03/31 07:18:08;;;;;;;18.40;4.45;;;10.90;99.90;;;;;;4934489;28;38461;-78
2023/03/31 07:20:35;;;;;;;22.70;4.63;;;11.00;99.90;;;;;;4930287;28;37334;-77
2023/03/31 07:23:04;;;;;;;13.68;3.22;;;11.00;99.90;;;;;;4956590;28;37704;-79
2023/03/31 07:25:30;;;;;;;17.50;3.30;;;11.00;99.90;;;;;;4932346;28;47036;-78
2023/03/31 07:27:56;;;;;;;17.38;3.15;;;11.00;99.90;;;;;;4936406;28;37947;-79
2023/03/31 07:30:23;;;;;;;15.15;3.03;;;11.00;99.90;;;;;;4944930;28;38505;-80
2023/03/31 07:32:51;;;;;;;17.58;3.20;;;11.00;99.90;;;;;;4942284;28;36450;-79
2023/03/31 07:35:18;;;;;;;19.52;3.10;;;11.00;99.90;;;;;;4940782;28;37548;-79
2023/03/31 07:37:46;;;;;;;12.13;2.78;;;11.00;99.90;;;;;;4937119;28;37671;-78
2023/03/31 07:40:21;;;;;;;19.90;3.38;;;11.00;99.90;;;;;;4937606;28;37299;-77
2023/03/31 07:42:47;;;;;;;23.35;5.07;;;11.00;99.90;;;;;;4934675;28;37062;-78
2023/03/31 07:45:15;;;;;;;15.77;4.40;;;11.00;99.90;;;;;;4936865;28;37531;-78
2023/03/31 07:47:43;;;;;;;19.33;3.97;;;11.00;99.90;;;;;;4934868;28;39110;-78
2023/03/31 07:50:09;;;;;;;19.55;3.92;;;11.00;99.90;;;;;;4945800;28;37804;-77
2023/03/31 07:52:36;;;;;;;21.52;4.30;;;11.00;99.90;;;;;;4931110;28;36063;-77
2023/03/31 07:55:02;;;;;;;20.58;3.72;;;11.00;99.90;;;;;;4930371;28;36685;-77
2023/03/31 07:57:29;;;;;;;13.57;2.92;;;11.00;99.90;;;;;;4948172;28;38186;-77
2023/03/31 07:59:55;;;;;;;15.00;4.05;;;11.10;99.90;;;;;;4933159;28;37499;-77
2023/03/31 08:02:21;;;;;;;11.13;2.78;;;11.00;99.90;;;;;;4929748;28;36343;-78
2023/03/31 08:04:47;;;;;;;14.60;3.10;;;11.10;99.90;;;;;;4931615;28;37937;-77
2023/03/31 08:07:15;;;;;;;19.67;2.85;;;11.10;99.90;;;;;;4935242;28;38151;-77
2023/03/31 08:09:45;;;;;;;13.65;3.70;;;11.20;99.90;;;;;;4932565;28;37664;-77
2023/03/31 08:12:12;;;;;;;16.73;5.35;;;11.20;99.90;;;;;;4944763;28;37618;-77
2023/03/31 08:14:39;;;;;;;17.63;4.53;;;11.20;99.90;;;;;;4940277;28;39099;-79
2023/03/31 08:17:05;;;;;;;18.00;4.15;;;11.20;99.90;;;;;;4923916;28;37419;-78
2023/03/31 08:19:32;;;;;;;17.33;4.28;;;11.30;99.90;;;;;;4944985;28;39056;-78
2023/03/31 08:22:00;;;;;;;15.95;3.70;;;11.40;99.90;;;;;;4933513;28;36257;-77
2023/03/31 08:24:26;;;;;;;17.65;3.88;;;11.50;99.90;;;;;;4927541;28;38788;-76
2023/03/31 08:26:52;;;;;;;23.60;5.63;;;11.60;99.90;;;;;;4927611;28;39473;-75
2023/03/31 08:29:18;;;;;;;24.08;4.13;;;11.70;99.90;;;;;;4933174;28;38980;-76
2023/03/31 08:31:44;;;;;;;26.77;4.80;;;11.80;99.90;;;;;;4932370;28;36477;-76
2023/03/31 08:34:10;;;;;;;20.20;3.67;;;11.90;99.90;;;;;;4925501;28;37703;-78
2023/03/31 08:36:36;;;;;;;28.80;5.15;;;12.00;99.90;;;;;;4953978;28;37779;-79
2023/03/31 08:39:03;;;;;;;19.17;4.40;;;12.10;99.90;;;;;;4946564;28;37224;-78
2023/03/31 08:41:57;;;;;;;26.48;4.25;;;12.10;99.90;;;;;;4937426;28;36092;-78
2023/03/31 08:44:30;;;;;;;26.90;4.28;;;12.10;99.90;;;;;;4935501;28;39111;-78
2023/03/31 08:46:59;;;;;;;25.25;4.57;;;12.30;99.90;;;;;;4932176;28;37228;-78
2023/03/31 08:49:32;;;;;;;19.67;4.15;;;12.30;99.90;;;;;;4954333;28;38784;-78
2023/03/31 08:52:05;;;;;;;20.23;3.67;;;12.40;99.90;;;;;;4935647;28;36039;-80
2023/03/31 08:54:33;;;;;;;21.27;4.32;;;12.50;99.90;;;;;;4951027;28;47821;-78
2023/03/31 08:57:00;;;;;;;23.33;4.90;;;12.50;99.90;;;;;;4946502;28;38673;-78
2023/03/31 08:59:34;;;;;;;22.35;4.55;;;12.50;99.90;;;;;;4935698;28;36970;-79
2023/03/31 09:02:12;;;;;;;22.70;4.30;;;12.50;99.90;;;;;;4928337;28;36083;-78
2023/03/31 09:04:38;;;;;;;25.58;4.65;;;12.30;99.90;;;;;;4933538;28;48108;-80
2023/03/31 09:07:24;;;;;;;19.88;4.18;;;12.30;99.90;;;;;;4924651;28;37484;-79
2023/03/31 09:09:54;;;;;;;24.30;4.43;;;12.20;99.90;;;;;;4929669;28;38044;-81
2023/03/31 09:12:25;;;;;;;19.00;4.10;;;12.20;99.90;;;;;;4929283;28;36069;-79
2023/03/31 09:14:54;;;;;;;22.30;5.07;;;12.20;99.90;;;;;;4935367;28;37940;-78
2023/03/31 09:17:30;;;;;;;25.23;4.50;;;12.20;99.90;;;;;;4924729;28;37091;-78
2023/03/31 09:20:09;;;;;;;27.38;4.13;;;12.30;99.90;;;;;;4951980;28;37778;-78
2023/03/31 09:22:40;;;;;;;20.67;4.25;;;12.30;99.90;;;;;;4932022;28;47227;-77
2023/03/31 09:25:25;;;;;;;19.42;4.13;;;12.30;99.90;;;;;;4935494;28;37839;-78
2023/03/31 09:27:54;;;;;;;25.27;3.95;;;12.30;99.90;;;;;;4935110;28;37383;-77
2023/03/31 09:30:24;;;;;;;25.10;4.90;;;12.30;99.90;;;;;;4955682;28;38074;-79
2023/03/31 09:33:09;;;;;;;30.45;5.07;;;12.30;99.90;;;;;;4954728;28;36312;-78
2023/03/31 09:35:36;;;;;;;20.92;3.55;;;12.30;99.90;;;;;;4935524;28;47828;-76
2023/03/31 09:38:02;;;;;;;19.48;3.72;;;12.30;99.90;;;;;;4932984;28;38605;-78
2023/03/31 09:40:29;;;;;;;26.17;4.25;;;12.20;99.90;;;;;;4936353;28;36774;-78
2023/03/31 09:43:21;;;;;;;20.17;3.72;;;12.20;99.90;;;;;;4936358;28;36877;-78
2023/03/31 09:45:47;;;;;;;22.88;4.65;;;12.20;99.90;;;;;;4940006;28;47256;-77
2023/03/31 09:48:17;;;;;;;15.45;3.53;;;12.20;99.90;;;;;;4945936;28;37478;-79
2023/03/31 09:51:05;;;;;;;24.58;4.03;;;12.10;99.90;;;;;;4965834;28;39147;-79
2023/03/31 09:53:40;;;;;;;22.20;4.47;;;12.10;99.90;;;;;;4943330;28;47185;-78
2023/03/31 09:56:10;;;;;;;26.05;4.32;;;12.00;99.90;;;;;;4946357;28;40199;-78
2023/03/31 09:58:45;;;;;;;25.45;4.90;;;12.00;99.90;;;;;;4942944;28;37934;-78
2023/03/31 10:01:14;;;;;;;18.00;3.78;;;12.00;99.90;;;;;;4942247;28;40013;-78
2023/03/31 10:03:58;;;;;;;23.58;3.53;;;11.90;99.90;;;;;;4955241;28;39940;-78
2023/03/31 10:06:25;;;;;;;25.00;4.30;;;11.80;99.90;;;;;;4927958;28;39168;-76
2023/03/31 10:09:01;;;;;;;24.50;3.90;;;11.80;99.90;;;;;;4948049;28;38233;-74
2023/03/31 10:11:27;;;;;;;21.00;4.05;;;11.80;99.90;;;;;;4937956;28;47012;-78
2023/03/31 10:14:13;;;;;;;21.85;3.63;;;11.80;99.90;;;;;;4932909;28;36708;-79
2023/03/31 10:16:45;;;;;;;21.58;4.13;;;11.80;99.90;;;;;;4935550;28;47160;-79
2023/03/31 10:19:28;;;;;;;18.90;4.18;;;11.80;99.90;;;;;;4952408;28;37836;-80
2023/03/31 10:21:59;;;;;;;17.88;3.38;;;11.80;99.90;;;;;;4936192;28;38749;-78
2023/03/31 10:24:35;;;;;;;23.67;3.90;;;11.80;99.90;;;;;;4923708;28;36259;-77
2023/03/31 10:27:01;;;;;;;20.60;3.90;;;11.60;99.90;;;;;;4916487;28;39152;-76
2023/03/31 10:29:33;;;;;;;24.67;4.75;;;11.50;99.90;;;;;;4947206;28;49280;-74
2023/03/31 10:32:16;;;;;;;21.02;3.50;;;11.40;99.90;;;;;;4939288;28;38048;-77
2023/03/31 10:34:43;;;;;;;20.65;3.80;;;11.40;99.90;;;;;;4925267;28;47025;-76
2023/03/31 10:37:15;;;;;;;19.98;4.03;;;11.50;99.90;;;;;;4925877;28;38598;-78
2023/03/31 10:39:42;;;;;;;22.13;4.43;;;11.50;99.90;;;;;;4933135;28;38797;-76
2023/03/31 10:42:09;;;;;;;21.25;3.58;;;11.50;99.90;;;;;;4926398;28;40956;-77
2023/03/31 10:44:38;;;;;;;20.98;3.42;;;11.60;99.90;;;;;;4925776;28;36269;-76
2023/03/31 10:47:13;;;;;;;18.70;3.95;;;11.70;99.90;;;;;;4941955;28;38623;-75
2023/03/31 10:49:42;;;;;;;17.15;3.30;;;11.70;99.90;;;;;;4940717;28;37329;-75
2023/03/31 10:52:17;;;;;;;21.63;3.47;;;11.70;99.90;;;;;;4950524;28;36851;-76
2023/03/31 10:54:56;;;;;;;18.98;3.20;;;11.80;99.90;;;;;;4923325;28;36129;-76
2023/03/31 10:57:41;;;;;;;18.08;3.30;;;11.80;99.90;;;;;;4927987;28;39828;-76
2023/03/31 11:00:11;;;;;;;22.90;3.38;;;11.80;99.90;;;;;;4921483;28;38423;-77
2023/03/31 11:02:48;;;;;;;15.43;3.53;;;11.80;99.90;;;;;;4925200;28;36320;-77
2023/03/31 11:05:30;;;;;;;16.20;3.08;;;11.70;99.90;;;;;;4917084;28;36435;-75
2023/03/31 11:08:17;;;;;;;14.63;2.72;;;11.70;99.90;;;;;;4937683;28;39334;-76
2023/03/31 11:11:07;;;;;;;17.25;2.78;;;11.60;99.90;;;;;;4931919;28;47150;-80
2023/03/31 11:14:14;;;;;;;16.48;2.63;;;11.60;99.90;;;;;;4919751;28;47772;-77
2023/03/31 11:17:00;;;;;;;12.88;2.50;;;11.50;99.90;;;;;;4924783;28;47232;-75
2023/03/31 11:19:36;;;;;;;11.93;1.98;;;11.60;99.90;;;;;;4939648;28;38286;-76
2023/03/31 11:22:13;;;;;;;10.07;2.42;;;11.80;99.90;;;;;;4937579;28;38523;-77
2023/03/31 11:25:08;;;;;;;10.90;1.90;;;11.90;99.90;;;;;;4910590;28;37061;-76
2023/03/31 11:28:19;;;;;;;9.05;1.88;;;11.90;99.90;;;;;;4943225;28;47178;-75
2023/03/31 11:30:53;;;;;;;11.00;2.50;;;11.90;99.90;;;;;;4929095;28;47289;-76
2023/03/31 11:33:32;;;;;;;9.00;2.05;;;11.90;99.90;;;;;;4920481;28;37210;-76
2023/03/31 11:36:03;;;;;;;10.23;2.00;;;11.90;99.90;;;;;;4913972;28;37153;-76
2023/03/31 11:38:53;;;;;;;11.23;2.22;;;11.70;99.90;;;;;;4940947;28;48635;-76
2023/03/31 11:41:29;;;;;;;12.88;2.22;;;11.60;99.90;;;;;;4912686;28;37635;-75
2023/03/31 11:44:03;;;;;;;7.32;1.77;;;11.60;99.90;;;;;;4943211;28;38178;-74
2023/03/31 11:46:47;;;;;;;11.45;2.20;;;11.70;99.90;;;;;;4934353;28;48808;-75
2023/03/31 11:49:37;;;;;;;9.75;2.13;;;11.70;99.90;;;;;;4934057;28;36990;-76
2023/03/31 11:52:24;;;;;;;14.68;2.47;;;11.70;99.90;;;;;;4945032;28;38933;-75
2023/03/31 11:55:20;;;;;;;10.55;2.22;;;11.60;99.90;;;;;;4931871;28;39083;-75
2023/03/31 11:58:11;;;;;;;11.10;2.15;;;11.60;99.90;;;;;;4924858;28;47308;-75
2023/03/31 12:00:46;;;;;;;13.25;2.70;;;11.50;99.90;;;;;;4940911;28;48922;-75
2023/03/31 12:03:15;;;;;;;14.52;2.90;;;11.50;99.90;;;;;;4934723;28;40015;-75
2023/03/31 12:05:48;;;;;;;15.02;2.67;;;11.50;99.90;;;;;;4906925;28;40222;-76
2023/03/31 12:08:21;;;;;;;16.63;2.85;;;11.50;99.90;;;;;;4901895;28;37103;-75
2023/03/31 12:11:11;;;;;;;18.40;3.05;;;11.60;99.90;;;;;;4934639;28;37672;-75
2023/03/31 12:13:46;;;;;;;17.38;3.75;;;11.60;99.90;;;;;;4914189;28;46862;-77
2023/03/31 12:16:24;;;;;;;21.27;4.47;;;11.70;99.90;;;;;;4905240;28;37764;-76
2023/03/31 12:19:26;;;;;;;18.08;3.97;;;11.70;99.90;;;;;;4932304;28;37467;-77
2023/03/31 12:22:09;;;;;;;21.08;4.13;;;11.70;99.90;;;;;;4931847;28;48159;-76
2023/03/31 12:24:35;;;;;;;17.58;2.92;;;11.50;99.90;;;;;;4918428;28;47083;-77
2023/03/31 12:27:08;;;;;;;15.77;3.00;;;11.40;99.90;;;;;;4945925;28;38238;-78
2023/03/31 12:30:00;;;;;;;12.77;2.72;;;11.40;99.90;;;;;;4916461;28;47105;-76
2023/03/31 12:32:29;;;;;;;12.98;2.45;;;11.70;99.90;;;;;;4915037;28;36321;-77
2023/03/31 12:35:02;;;;;;;14.55;2.83;;;11.80;99.90;;;;;;4927015;28;39218;-76
2023/03/31 12:37:35;;;;;;;;;;;12.00;99.90;;;;;;4934378;28;37649;-78
2023/03/31 12:40:31;;;;;;;12.40;2.63;;;12.10;99.90;;;;;;4925794;28;37331;-75
2023/03/31 12:43:04;;;;;;;5.88;1.40;;;12.10;99.90;;;;;;4922107;28;46716;-76
2023/03/31 12:45:38;;;;;;;11.85;2.13;;;12.20;99.90;;;;;;4925692;28;47232;-76
2023/03/31 12:48:09;;;;;;;7.47;1.63;;;12.10;99.90;;;;;;4919813;28;38701;-77
2023/03/31 12:50:48;;;;;;;7.75;1.85;;;12.10;99.90;;;;;;4929367;28;38908;-76
2023/03/31 12:53:33;;;;;;;7.05;1.45;;;12.10;99.90;;;;;;4919196;28;36274;-77
2023/03/31 12:56:00;;;;;;;8.45;2.00;;;12.10;99.90;;;;;;4929023;28;38523;-76
2023/03/31 12:58:28;;;;;;;7.07;1.30;;;12.00;99.90;;;;;;4932674;28;47044;-76
2023/03/31 13:01:08;;;;;;;8.35;1.70;;;11.90;99.90;;;;;;4909967;28;37178;-77
2023/03/31 13:03:35;;;;;;;10.23;2.13;;;11.70;99.90;;;;;;4912074;28;47636;-77